createdAt,value
2018-06-02T00:01:51.086Z,26.5
2018-06-02T00:06:49.063Z,26.5
2018-06-02T00:11:47.123Z,26.5
2018-06-02T00:16:45.082Z,26.5
2018-06-02T00:21:42.981Z,26.5
2018-06-02T00:26:40.853Z,26.4
2018-06-02T00:31:38.729Z,26.4
2018-06-02T00:36:36.529Z,26.3
2018-06-02T00:41:34.521Z,26.2
2018-06-02T00:46:32.396Z,26.3
2018-06-02T00:51:29.951Z,26.2
2018-06-02T00:56:27.690Z,26.2
2018-06-02T01:01:25.602Z,26.2
2018-06-02T01:06:23.449Z,26.1
2018-06-02T01:11:21.421Z,26.1
2018-06-02T01:16:19.330Z,26.1
2018-06-02T01:21:17.329Z,26.1
2018-06-02T01:26:14.954Z,26.1
2018-06-02T01:31:12.814Z,26
2018-06-02T01:36:10.662Z,26
2018-06-02T01:41:08.627Z,25.8
2018-06-02T01:46:06.324Z,26
2018-06-02T01:51:04.195Z,26
2018-06-02T01:56:01.532Z,25.9
2018-06-02T02:00:59.196Z,25.9
2018-06-02T02:05:57.029Z,25.9
2018-06-02T02:10:54.830Z,25.6
2018-06-02T02:15:52.194Z,25.6
2018-06-02T02:20:49.370Z,25.7
2018-06-02T02:25:47.269Z,25.7
2018-06-02T02:30:45.173Z,25.7
2018-06-02T02:35:43.116Z,25.7
2018-06-02T02:40:40.996Z,25.6
2018-06-02T02:45:38.955Z,25.6
2018-06-02T02:50:36.941Z,25.4
2018-06-02T02:55:34.313Z,25.4
2018-06-02T03:00:32.262Z,25.5
2018-06-02T03:05:30.320Z,25.4
2018-06-02T03:10:28.429Z,25.5
2018-06-02T03:15:26.447Z,25.3
2018-06-02T03:20:24.400Z,25.3
2018-06-02T03:25:22.458Z,25.4
2018-06-02T03:30:20.405Z,25.2
2018-06-02T03:35:18.401Z,25.4
2018-06-02T03:40:16.263Z,25.4
2018-06-02T03:45:14.293Z,25.4
2018-06-02T03:50:12.243Z,25.4
2018-06-02T03:55:10.294Z,25.4
2018-06-02T04:00:08.239Z,25.4
2018-06-02T04:05:06.276Z,25.4
2018-06-02T04:10:04.238Z,25.4
2018-06-02T04:15:01.559Z,25.4
2018-06-02T04:19:59.506Z,25.5
2018-06-02T04:24:57.072Z,25.5
2018-06-02T04:29:54.874Z,25.4
2018-06-02T04:34:53.049Z,25.4
2018-06-02T04:39:51.027Z,25.6
2018-06-02T04:44:48.928Z,25.5
2018-06-02T04:49:46.529Z,25.7
2018-06-02T04:54:46.534Z,25.6
2018-06-02T04:59:44.317Z,25.7
2018-06-02T05:04:42.128Z,25.6
2018-06-02T05:09:39.834Z,25.5
2018-06-02T05:14:37.733Z,25.4
2018-06-02T05:19:35.890Z,25.4
2018-06-02T05:24:33.893Z,25.3
2018-06-02T05:29:31.531Z,25.3
2018-06-02T05:34:29.471Z,25.3
2018-06-02T05:39:27.313Z,25.3
2018-06-02T05:44:25.105Z,25.3
2018-06-02T05:49:22.909Z,25.4
2018-06-02T05:54:21.037Z,25.3
2018-06-02T05:59:18.785Z,25.4
2018-06-02T06:04:16.804Z,25.4
2018-06-02T06:09:14.631Z,25.4
2018-06-02T06:14:11.980Z,25.3
2018-06-02T06:19:10.031Z,25.4
2018-06-02T06:24:08.121Z,25.4
2018-06-02T06:29:06.157Z,25.4
2018-06-02T06:34:04.563Z,25.2
2018-06-02T06:39:02.576Z,25.4
2018-06-02T06:44:00.654Z,25.4
2018-06-02T06:48:58.745Z,25.4
2018-06-02T06:53:56.814Z,25.4
2018-06-02T06:58:55.619Z,25.5
2018-06-02T07:03:53.466Z,25.5
2018-06-02T07:08:51.494Z,25.5
2018-06-02T07:13:49.572Z,25.5
2018-06-02T07:18:47.618Z,25.4
2018-06-02T07:23:45.681Z,25.5
2018-06-02T07:28:44.127Z,25.6
2018-06-02T07:33:42.613Z,25.6
2018-06-02T07:38:40.432Z,25.5
2018-06-02T07:43:38.627Z,25.6
2018-06-02T07:48:36.691Z,25.6
2018-06-02T07:53:34.697Z,25.5
2018-06-02T07:58:32.817Z,25.6
2018-06-02T08:03:31.308Z,25.5
2018-06-02T08:08:29.454Z,25.6
2018-06-02T08:13:27.180Z,25.6
2018-06-02T08:18:25.155Z,25.5
2018-06-02T08:23:23.154Z,25.6
2018-06-02T08:28:22.722Z,25.6
2018-06-02T08:33:20.967Z,25.5
2018-06-02T08:38:19.636Z,25.6
2018-06-02T08:43:17.443Z,25.6
2018-06-02T08:48:15.469Z,25.6
2018-06-02T08:53:13.562Z,25.5
2018-06-02T08:58:11.497Z,25.6
2018-06-02T09:03:09.528Z,25.6
2018-06-02T09:08:07.737Z,25.7
2018-06-02T09:13:05.687Z,25.7
2018-06-02T09:18:03.906Z,25.8
2018-06-02T09:23:02.062Z,25.8
2018-06-02T09:28:00.365Z,25.8
2018-06-02T09:32:58.611Z,25.9
2018-06-02T09:37:56.841Z,26
2018-06-02T09:42:54.965Z,26
2018-06-02T09:47:53.124Z,26.1
2018-06-02T09:52:51.619Z,26.1
2018-06-02T09:57:50.069Z,26.1
2018-06-02T10:02:47.934Z,26.2
2018-06-02T10:07:45.812Z,26.3
2018-06-02T10:12:43.680Z,26.3
2018-06-02T10:17:41.749Z,26.4
2018-06-02T10:22:39.110Z,26.4
2018-06-02T10:27:36.818Z,26.4
2018-06-02T10:32:34.827Z,26.4
2018-06-02T10:37:32.914Z,26.5
2018-06-02T10:42:31.129Z,26.5
2018-06-02T10:47:28.883Z,26.6
2018-06-02T10:52:27.069Z,26.7
2018-06-02T10:57:25.367Z,26.8
2018-06-02T11:02:23.653Z,26.9
2018-06-02T11:07:21.804Z,27
2018-06-02T11:12:19.987Z,27.1
2018-06-02T11:17:18.033Z,27.1
2018-06-02T11:22:15.775Z,27.2
2018-06-02T11:27:13.957Z,27.3
2018-06-02T11:32:12.641Z,27.4
2018-06-02T11:37:10.290Z,27.3
2018-06-02T11:42:08.711Z,27.4
2018-06-02T11:47:07.098Z,27.5
2018-06-02T11:52:05.420Z,27.6
2018-06-02T11:57:03.827Z,27.6
2018-06-02T12:02:02.336Z,27.8
2018-06-02T12:07:00.533Z,27.7
2018-06-02T12:11:58.745Z,27.9
2018-06-02T12:16:57.083Z,28
2018-06-02T12:21:56.130Z,28.1
2018-06-02T12:26:54.654Z,28.1
2018-06-02T12:31:52.740Z,28.4
2018-06-02T12:36:51.173Z,28.4
2018-06-02T12:41:49.275Z,28.6
2018-06-02T12:46:47.584Z,28.7
2018-06-02T12:51:45.745Z,28.7
2018-06-02T12:56:44.096Z,28.7
2018-06-02T13:01:42.121Z,28.6
2018-06-02T13:06:42.014Z,28.5
2018-06-02T13:11:40.238Z,28.4
2018-06-02T13:16:38.710Z,28.3
2018-06-02T13:21:36.913Z,28.2
2018-06-02T13:26:35.022Z,28.2
2018-06-02T13:31:32.639Z,28.1
2018-06-02T13:36:30.618Z,28.1
2018-06-02T13:41:28.656Z,28.1
2018-06-02T13:46:26.675Z,28.1
2018-06-02T13:51:24.240Z,28
2018-06-02T13:56:22.475Z,28.1
2018-06-02T14:01:20.729Z,27.9
2018-06-02T14:06:18.930Z,27.9
2018-06-02T14:11:17.029Z,28.1
2018-06-02T14:16:17.133Z,28
2018-06-02T14:21:14.814Z,28
2018-06-02T14:26:12.689Z,28
2018-06-02T14:31:11.038Z,28
2018-06-02T14:36:09.292Z,28.1
2018-06-02T14:41:08.441Z,28
2018-06-02T14:46:05.647Z,28.1
2018-06-02T14:51:03.107Z,27.9
2018-06-02T14:56:01.281Z,28
2018-06-02T15:00:59.541Z,27.9
2018-06-02T15:05:57.883Z,28
2018-06-02T15:10:55.676Z,28
2018-06-02T15:15:53.910Z,28
2018-06-02T15:20:52.392Z,28
2018-06-02T15:25:50.527Z,28
2018-06-02T15:30:48.537Z,28
2018-06-02T15:35:46.486Z,27.8
2018-06-02T15:40:45.048Z,27.7
2018-06-02T15:45:43.099Z,27.7
2018-06-02T15:50:41.284Z,27.8
2018-06-02T15:55:39.744Z,27.7
2018-06-02T16:00:38.033Z,27.8
2018-06-02T16:05:35.682Z,27.8
2018-06-02T16:10:33.274Z,27.7
2018-06-02T16:15:31.230Z,27.7
2018-06-02T16:20:29.186Z,27.7
2018-06-02T16:25:27.238Z,27.7
2018-06-02T16:30:25.198Z,27.7
2018-06-02T16:35:23.128Z,27.6
2018-06-02T16:40:20.589Z,27.6
2018-06-02T16:45:18.909Z,27.4
2018-06-02T16:50:17.050Z,27.5
2018-06-02T16:55:14.975Z,27.5
2018-06-02T17:00:13.360Z,27.4
2018-06-02T17:05:11.742Z,27.2
2018-06-02T17:10:09.975Z,27.3
2018-06-02T17:15:08.170Z,27.1
2018-06-02T17:20:05.997Z,27.1
2018-06-02T17:25:04.067Z,26.9
2018-06-02T17:30:02.021Z,26.9
2018-06-02T17:34:59.831Z,26.6
2018-06-02T17:39:57.170Z,26.6
2018-06-02T17:44:55.061Z,26.4
2018-06-02T17:49:52.838Z,26.4
2018-06-02T17:54:50.798Z,26.3
2018-06-02T17:59:48.575Z,26.2
2018-06-02T18:04:46.294Z,26.1
2018-06-02T18:09:44.390Z,26
2018-06-02T18:14:42.543Z,25.8
2018-06-02T18:19:40.012Z,25.9
2018-06-02T18:24:38.168Z,25.8
2018-06-02T18:29:36.635Z,25.9
2018-06-02T18:34:34.936Z,25.8
2018-06-02T18:39:36.277Z,25.7
2018-06-02T18:44:35.402Z,25.8
2018-06-02T18:49:36.078Z,25.8
2018-06-02T18:54:38.955Z,25.9
2018-06-02T18:59:38.379Z,25.9
2018-06-02T19:04:36.247Z,25.9
2018-06-02T19:09:34.215Z,25.8
2018-06-02T19:14:32.588Z,25.8
2018-06-02T19:19:30.686Z,25.7
2018-06-02T19:24:28.928Z,25.9
2018-06-02T19:29:26.927Z,25.9
2018-06-02T19:34:24.696Z,26
2018-06-02T19:39:22.106Z,26
2018-06-02T19:44:20.607Z,26.1
2018-06-02T19:49:19.506Z,26.1
2018-06-02T19:54:17.808Z,26.1
2018-06-02T19:59:16.019Z,26.1
2018-06-02T20:04:13.529Z,26.1
2018-06-02T20:09:11.793Z,26.2
2018-06-02T20:14:09.832Z,26.2
2018-06-02T20:19:07.730Z,26.2
2018-06-02T20:24:05.741Z,26.2
2018-06-02T20:29:03.755Z,26.2
2018-06-02T20:34:01.778Z,26.2
2018-06-02T20:39:00.857Z,26.1
2018-06-02T20:43:59.691Z,26.2
2018-06-02T20:48:57.643Z,26.2
2018-06-02T20:53:55.561Z,26.3
2018-06-02T20:58:52.814Z,26.3
2018-06-02T21:03:50.771Z,26.3
2018-06-02T21:08:48.896Z,26.3
2018-06-02T21:13:46.867Z,26.4
2018-06-02T21:18:44.851Z,26.4
2018-06-02T21:23:42.870Z,26.4
2018-06-02T21:28:40.814Z,26.4
2018-06-02T21:33:38.690Z,26.4
2018-06-02T21:38:36.696Z,26.3
2018-06-02T21:43:34.548Z,26.4
2018-06-02T21:48:32.461Z,26.4
2018-06-02T21:53:30.191Z,26.4
2018-06-02T21:58:28.205Z,26.2
2018-06-02T22:03:26.132Z,26.5
2018-06-02T22:08:24.393Z,26.5
2018-06-02T22:13:22.492Z,26.5
2018-06-02T22:18:20.399Z,26.5
2018-06-02T22:23:17.964Z,26.5
2018-06-02T22:28:15.856Z,26.5
2018-06-02T22:33:13.771Z,26.5
2018-06-02T22:38:11.438Z,26.5
2018-06-02T22:43:09.454Z,26.5
2018-06-02T22:48:07.388Z,26.5
2018-06-02T22:53:05.246Z,26.5
2018-06-02T22:58:03.319Z,26.3
2018-06-02T23:03:01.226Z,26.4
2018-06-02T23:07:59.416Z,26.3
2018-06-02T23:12:57.418Z,26.3
2018-06-02T23:17:55.604Z,26.3
2018-06-02T23:22:53.575Z,26.3
2018-06-02T23:27:51.419Z,26.3
2018-06-02T23:32:48.904Z,26.3
2018-06-02T23:37:46.697Z,26.2
2018-06-02T23:42:44.555Z,26.2
2018-06-02T23:47:42.740Z,26
2018-06-02T23:52:40.689Z,26.2
2018-06-02T23:57:38.633Z,26.1
